Terminal Aerodrome Forecast
Issued by NWS

Home | Current Version | Previous Version | Graphics & Text | Print | Product List | Glossary On
Versions: 1 2 3 4 5 6 7 8 9 10 11 12 13 14 15 16
000
FTUS43 KFGF 282300
TAFBJI
TAF
KBJI 282339Z 0100/0124 20012KT P6SM BKN035
     FM010100 22009KT P6SM OVC035
      TEMPO 0101/0103 2SM -SN BKN025
     FM010900 24008KT P6SM BKN025=

USA.gov is the U.S. government's official web portal to all federal, state and local government web resources and services.